sensor_id;sensor_type;location;lat;lon;timestamp;P1;durP1;ratioP1;P2;durP2;ratioP2
27428;SDS011;14881;48.092;11.574;2022-11-11T00:01:09;5.20;;;3.97;;
27428;SDS011;14881;48.092;11.574;2022-11-11T00:03:38;5.63;;;3.80;;
27428;SDS011;14881;48.092;11.574;2022-11-11T00:06:08;4.80;;;3.92;;
27428;SDS011;14881;48.092;11.574;2022-11-11T00:08:37;5.55;;;3.72;;
27428;SDS011;14881;48.092;11.574;2022-11-11T00:11:06;4.00;;;3.60;;
27428;SDS011;14881;48.092;11.574;2022-11-11T00:13:36;5.32;;;4.00;;
27428;SDS011;14881;48.092;11.574;2022-11-11T00:16:05;6.28;;;4.00;;
27428;SDS011;14881;48.092;11.574;2022-11-11T00:18:34;4.70;;;3.67;;
27428;SDS011;14881;48.092;11.574;2022-11-11T00:21:20;5.88;;;4.10;;
27428;SDS011;14881;48.092;11.574;2022-11-11T00:24:08;4.90;;;3.78;;
27428;SDS011;14881;48.092;11.574;2022-11-11T00:27:04;6.28;;;3.90;;
27428;SDS011;14881;48.092;11.574;2022-11-11T00:29:34;4.63;;;3.92;;
27428;SDS011;14881;48.092;11.574;2022-11-11T00:32:02;6.15;;;4.60;;
27428;SDS011;14881;48.092;11.574;2022-11-11T00:34:48;5.63;;;4.50;;
27428;SDS011;14881;48.092;11.574;2022-11-11T00:37:34;6.72;;;4.22;;
27428;SDS011;14881;48.092;11.574;2022-11-11T00:40:02;7.35;;;4.60;;
27428;SDS011;14881;48.092;11.574;2022-11-11T00:42:31;7.00;;;4.35;;
27428;SDS011;14881;48.092;11.574;2022-11-11T00:45:00;6.20;;;4.00;;
27428;SDS011;14881;48.092;11.574;2022-11-11T00:47:28;8.38;;;4.28;;
27428;SDS011;14881;48.092;11.574;2022-11-11T00:50:14;5.57;;;4.00;;
27428;SDS011;14881;48.092;11.574;2022-11-11T00:53:02;6.78;;;3.88;;
27428;SDS011;14881;48.092;11.574;2022-11-11T00:55:30;6.82;;;3.63;;
27428;SDS011;14881;48.092;11.574;2022-11-11T00:57:58;4.70;;;3.55;;
27428;SDS011;14881;48.092;11.574;2022-11-11T01:00:27;3.72;;;3.20;;
27428;SDS011;14881;48.092;11.574;2022-11-11T01:02:56;6.63;;;4.10;;
27428;SDS011;14881;48.092;11.574;2022-11-11T01:05:23;3.92;;;3.53;;
27428;SDS011;14881;48.092;11.574;2022-11-11T01:07:52;4.65;;;3.33;;
27428;SDS011;14881;48.092;11.574;2022-11-11T01:10:20;4.75;;;3.78;;
27428;SDS011;14881;48.092;11.574;2022-11-11T01:13:02;4.63;;;3.83;;
27428;SDS011;14881;48.092;11.574;2022-11-11T01:15:39;6.55;;;3.75;;
27428;SDS011;14881;48.092;11.574;2022-11-11T01:18:08;6.78;;;3.65;;
27428;SDS011;14881;48.092;11.574;2022-11-11T01:20:37;7.90;;;3.83;;
27428;SDS011;14881;48.092;11.574;2022-11-11T01:23:07;4.30;;;3.67;;
27428;SDS011;14881;48.092;11.574;2022-11-11T01:25:37;7.35;;;3.95;;
27428;SDS011;14881;48.092;11.574;2022-11-11T01:28:08;4.50;;;3.90;;
27428;SDS011;14881;48.092;11.574;2022-11-11T01:30:36;5.72;;;3.85;;
27428;SDS011;14881;48.092;11.574;2022-11-11T01:33:05;5.72;;;3.80;;
27428;SDS011;14881;48.092;11.574;2022-11-11T01:35:36;4.32;;;3.63;;
27428;SDS011;14881;48.092;11.574;2022-11-11T01:38:05;4.63;;;4.05;;
27428;SDS011;14881;48.092;11.574;2022-11-11T01:40:39;4.57;;;3.70;;
27428;SDS011;14881;48.092;11.574;2022-11-11T01:43:16;3.65;;;3.22;;
27428;SDS011;14881;48.092;11.574;2022-11-11T01:45:46;6.53;;;3.95;;
27428;SDS011;14881;48.092;11.574;2022-11-11T01:48:18;6.60;;;3.90;;
27428;SDS011;14881;48.092;11.574;2022-11-11T01:51:11;3.65;;;3.33;;
27428;SDS011;14881;48.092;11.574;2022-11-11T01:53:44;7.20;;;3.70;;
27428;SDS011;14881;48.092;11.574;2022-11-11T01:56:15;5.05;;;4.13;;
27428;SDS011;14881;48.092;11.574;2022-11-11T01:58:43;4.43;;;3.85;;
27428;SDS011;14881;48.092;11.574;2022-11-11T02:01:11;5.00;;;3.35;;
27428;SDS011;14881;48.092;11.574;2022-11-11T02:03:41;10.90;;;4.10;;
27428;SDS011;14881;48.092;11.574;2022-11-11T02:06:30;4.72;;;3.55;;
27428;SDS011;14881;48.092;11.574;2022-11-11T02:08:58;5.88;;;3.63;;
27428;SDS011;14881;48.092;11.574;2022-11-11T02:11:27;4.60;;;3.90;;
27428;SDS011;14881;48.092;11.574;2022-11-11T02:14:15;5.55;;;4.07;;
27428;SDS011;14881;48.092;11.574;2022-11-11T02:17:00;5.18;;;3.63;;
27428;SDS011;14881;48.092;11.574;2022-11-11T02:19:33;3.75;;;3.22;;
27428;SDS011;14881;48.092;11.574;2022-11-11T02:22:10;7.00;;;3.85;;
27428;SDS011;14881;48.092;11.574;2022-11-11T02:24:42;6.60;;;3.63;;
27428;SDS011;14881;48.092;11.574;2022-11-11T02:27:12;6.25;;;3.40;;
27428;SDS011;14881;48.092;11.574;2022-11-11T02:29:43;4.00;;;3.50;;
27428;SDS011;14881;48.092;11.574;2022-11-11T02:32:14;5.45;;;3.10;;
27428;SDS011;14881;48.092;11.574;2022-11-11T02:34:41;4.75;;;3.20;;
27428;SDS011;14881;48.092;11.574;2022-11-11T02:37:09;3.72;;;3.25;;
27428;SDS011;14881;48.092;11.574;2022-11-11T02:39:39;4.75;;;3.42;;
27428;SDS011;14881;48.092;11.574;2022-11-11T02:42:28;4.32;;;3.15;;
27428;SDS011;14881;48.092;11.574;2022-11-11T02:44:57;4.43;;;3.45;;
27428;SDS011;14881;48.092;11.574;2022-11-11T02:47:25;5.13;;;3.45;;
27428;SDS011;14881;48.092;11.574;2022-11-11T02:49:53;7.57;;;3.47;;
27428;SDS011;14881;48.092;11.574;2022-11-11T02:52:21;6.45;;;3.25;;
27428;SDS011;14881;48.092;11.574;2022-11-11T02:54:50;5.07;;;3.60;;
27428;SDS011;14881;48.092;11.574;2022-11-11T02:57:17;5.30;;;3.30;;
27428;SDS011;14881;48.092;11.574;2022-11-11T02:59:45;4.93;;;3.70;;
27428;SDS011;14881;48.092;11.574;2022-11-11T03:02:13;4.43;;;3.40;;
27428;SDS011;14881;48.092;11.574;2022-11-11T03:04:41;3.50;;;3.20;;
27428;SDS011;14881;48.092;11.574;2022-11-11T03:07:09;6.13;;;3.70;;
27428;SDS011;14881;48.092;11.574;2022-11-11T03:09:37;3.88;;;3.28;;
27428;SDS011;14881;48.092;11.574;2022-11-11T03:12:06;8.20;;;4.00;;
27428;SDS011;14881;48.092;11.574;2022-11-11T03:14:34;4.78;;;3.22;;
27428;SDS011;14881;48.092;11.574;2022-11-11T03:17:02;7.30;;;4.05;;
27428;SDS011;14881;48.092;11.574;2022-11-11T03:19:47;4.93;;;3.13;;
27428;SDS011;14881;48.092;11.574;2022-11-11T03:22:17;5.50;;;4.00;;
27428;SDS011;14881;48.092;11.574;2022-11-11T03:25:04;4.07;;;3.47;;
27428;SDS011;14881;48.092;11.574;2022-11-11T03:27:51;4.03;;;3.60;;
27428;SDS011;14881;48.092;11.574;2022-11-11T03:30:19;5.60;;;3.40;;
27428;SDS011;14881;48.092;11.574;2022-11-11T03:32:46;4.68;;;3.50;;
27428;SDS011;14881;48.092;11.574;2022-11-11T03:35:14;5.05;;;3.28;;
27428;SDS011;14881;48.092;11.574;2022-11-11T03:37:42;5.05;;;3.97;;
27428;SDS011;14881;48.092;11.574;2022-11-11T03:40:27;4.55;;;3.50;;
27428;SDS011;14881;48.092;11.574;2022-11-11T03:42:56;5.50;;;3.35;;
27428;SDS011;14881;48.092;11.574;2022-11-11T03:45:30;5.57;;;3.50;;
27428;SDS011;14881;48.092;11.574;2022-11-11T03:47:57;5.43;;;4.22;;
27428;SDS011;14881;48.092;11.574;2022-11-11T03:50:25;6.40;;;3.88;;
27428;SDS011;14881;48.092;11.574;2022-11-11T03:52:53;7.30;;;3.60;;
27428;SDS011;14881;48.092;11.574;2022-11-11T03:55:21;6.25;;;3.05;;
27428;SDS011;14881;48.092;11.574;2022-11-11T03:57:48;4.50;;;3.47;;
27428;SDS011;14881;48.092;11.574;2022-11-11T04:00:18;8.25;;;3.75;;
27428;SDS011;14881;48.092;11.574;2022-11-11T04:02:47;4.93;;;3.70;;
27428;SDS011;14881;48.092;11.574;2022-11-11T04:05:32;4.20;;;3.20;;
27428;SDS011;14881;48.092;11.574;2022-11-11T04:08:18;5.43;;;3.70;;
27428;SDS011;14881;48.092;11.574;2022-11-11T04:11:04;3.45;;;3.10;;
27428;SDS011;14881;48.092;11.574;2022-11-11T04:13:35;4.05;;;3.60;;
27428;SDS011;14881;48.092;11.574;2022-11-11T04:16:31;3.22;;;2.83;;
27428;SDS011;14881;48.092;11.574;2022-11-11T04:18:59;3.60;;;3.30;;
27428;SDS011;14881;48.092;11.574;2022-11-11T04:21:44;4.65;;;3.70;;
27428;SDS011;14881;48.092;11.574;2022-11-11T04:24:13;4.03;;;3.05;;
27428;SDS011;14881;48.092;11.574;2022-11-11T04:27:00;3.90;;;3.50;;
27428;SDS011;14881;48.092;11.574;2022-11-11T04:29:29;3.83;;;3.45;;
27428;SDS011;14881;48.092;11.574;2022-11-11T04:31:58;4.13;;;3.15;;
27428;SDS011;14881;48.092;11.574;2022-11-11T04:34:45;4.35;;;3.25;;
27428;SDS011;14881;48.092;11.574;2022-11-11T04:37:14;6.30;;;2.90;;
27428;SDS011;14881;48.092;11.574;2022-11-11T04:39:43;4.07;;;3.53;;
27428;SDS011;14881;48.092;11.574;2022-11-11T04:42:28;4.40;;;3.50;;
27428;SDS011;14881;48.092;11.574;2022-11-11T04:44:57;7.65;;;3.28;;
27428;SDS011;14881;48.092;11.574;2022-11-11T04:47:54;4.43;;;3.35;;
27428;SDS011;14881;48.092;11.574;2022-11-11T04:50:23;3.55;;;2.90;;
27428;SDS011;14881;48.092;11.574;2022-11-11T04:52:52;3.40;;;3.10;;
27428;SDS011;14881;48.092;11.574;2022-11-11T04:55:22;6.75;;;2.90;;
27428;SDS011;14881;48.092;11.574;2022-11-11T05:00:36;5.75;;;3.08;;
27428;SDS011;14881;48.092;11.574;2022-11-11T05:03:05;3.67;;;3.13;;
27428;SDS011;14881;48.092;11.574;2022-11-11T05:05:42;3.60;;;3.25;;
27428;SDS011;14881;48.092;11.574;2022-11-11T05:08:29;5.05;;;3.03;;
27428;SDS011;14881;48.092;11.574;2022-11-11T05:11:14;5.07;;;2.95;;
27428;SDS011;14881;48.092;11.574;2022-11-11T05:13:42;3.45;;;3.15;;
27428;SDS011;14881;48.092;11.574;2022-11-11T05:16:28;3.78;;;3.00;;
27428;SDS011;14881;48.092;11.574;2022-11-11T05:19:16;5.07;;;2.70;;
27428;SDS011;14881;48.092;11.574;2022-11-11T05:22:04;4.47;;;2.60;;
27428;SDS011;14881;48.092;11.574;2022-11-11T05:24:37;3.63;;;3.08;;
27428;SDS011;14881;48.092;11.574;2022-11-11T05:27:22;3.63;;;2.60;;
27428;SDS011;14881;48.092;11.574;2022-11-11T05:29:50;4.95;;;3.15;;
27428;SDS011;14881;48.092;11.574;2022-11-11T05:32:18;4.25;;;3.20;;
27428;SDS011;14881;48.092;11.574;2022-11-11T05:34:48;4.22;;;3.15;;
27428;SDS011;14881;48.092;11.574;2022-11-11T05:37:17;4.03;;;3.10;;
27428;SDS011;14881;48.092;11.574;2022-11-11T05:39:44;4.28;;;3.25;;
27428;SDS011;14881;48.092;11.574;2022-11-11T05:42:12;4.00;;;2.75;;
27428;SDS011;14881;48.092;11.574;2022-11-11T05:44:40;4.20;;;2.90;;
27428;SDS011;14881;48.092;11.574;2022-11-11T05:47:08;4.22;;;2.80;;
27428;SDS011;14881;48.092;11.574;2022-11-11T05:49:36;7.75;;;3.30;;
27428;SDS011;14881;48.092;11.574;2022-11-11T05:52:05;2.88;;;2.53;;
27428;SDS011;14881;48.092;11.574;2022-11-11T05:54:34;3.67;;;2.55;;
27428;SDS011;14881;48.092;11.574;2022-11-11T05:57:02;4.82;;;3.08;;
27428;SDS011;14881;48.092;11.574;2022-11-11T05:59:29;3.20;;;2.90;;
27428;SDS011;14881;48.092;11.574;2022-11-11T06:01:57;5.53;;;2.95;;
27428;SDS011;14881;48.092;11.574;2022-11-11T06:04:25;4.00;;;3.10;;
27428;SDS011;14881;48.092;11.574;2022-11-11T06:06:55;5.15;;;2.95;;
27428;SDS011;14881;48.092;11.574;2022-11-11T06:09:24;4.65;;;3.20;;
27428;SDS011;14881;48.092;11.574;2022-11-11T06:11:52;6.57;;;3.00;;
27428;SDS011;14881;48.092;11.574;2022-11-11T06:14:20;3.85;;;2.92;;
27428;SDS011;14881;48.092;11.574;2022-11-11T06:16:47;4.15;;;2.67;;
27428;SDS011;14881;48.092;11.574;2022-11-11T06:19:15;4.20;;;2.97;;
27428;SDS011;14881;48.092;11.574;2022-11-11T06:21:43;4.00;;;2.75;;
27428;SDS011;14881;48.092;11.574;2022-11-11T06:24:28;4.40;;;2.42;;
27428;SDS011;14881;48.092;11.574;2022-11-11T06:26:55;3.10;;;2.60;;
27428;SDS011;14881;48.092;11.574;2022-11-11T06:29:22;3.55;;;2.80;;
27428;SDS011;14881;48.092;11.574;2022-11-11T06:31:50;3.17;;;2.90;;
27428;SDS011;14881;48.092;11.574;2022-11-11T06:34:18;4.78;;;2.63;;
27428;SDS011;14881;48.092;11.574;2022-11-11T06:36:45;4.40;;;2.88;;
27428;SDS011;14881;48.092;11.574;2022-11-11T06:39:13;5.55;;;2.83;;
27428;SDS011;14881;48.092;11.574;2022-11-11T06:41:42;5.00;;;2.78;;
27428;SDS011;14881;48.092;11.574;2022-11-11T06:44:10;4.45;;;2.83;;
27428;SDS011;14881;48.092;11.574;2022-11-11T06:46:37;2.70;;;2.50;;
27428;SDS011;14881;48.092;11.574;2022-11-11T06:49:05;3.03;;;2.50;;
27428;SDS011;14881;48.092;11.574;2022-11-11T06:51:33;3.17;;;2.58;;
27428;SDS011;14881;48.092;11.574;2022-11-11T06:54:03;2.80;;;2.38;;
27428;SDS011;14881;48.092;11.574;2022-11-11T06:56:31;3.72;;;2.70;;
27428;SDS011;14881;48.092;11.574;2022-11-11T06:59:00;3.58;;;2.55;;
27428;SDS011;14881;48.092;11.574;2022-11-11T07:01:28;3.25;;;2.53;;
27428;SDS011;14881;48.092;11.574;2022-11-11T07:03:56;2.70;;;2.45;;
27428;SDS011;14881;48.092;11.574;2022-11-11T07:06:24;3.33;;;2.58;;
27428;SDS011;14881;48.092;11.574;2022-11-11T07:08:51;2.63;;;2.42;;
27428;SDS011;14881;48.092;11.574;2022-11-11T07:11:19;2.95;;;2.65;;
27428;SDS011;14881;48.092;11.574;2022-11-11T07:13:47;2.92;;;2.42;;
27428;SDS011;14881;48.092;11.574;2022-11-11T07:16:16;3.08;;;2.30;;
27428;SDS011;14881;48.092;11.574;2022-11-11T07:18:46;5.80;;;2.72;;
27428;SDS011;14881;48.092;11.574;2022-11-11T07:21:16;3.90;;;2.58;;
27428;SDS011;14881;48.092;11.574;2022-11-11T07:23:44;2.60;;;2.40;;
27428;SDS011;14881;48.092;11.574;2022-11-11T07:26:11;3.15;;;2.67;;
27428;SDS011;14881;48.092;11.574;2022-11-11T07:28:39;2.92;;;2.70;;
27428;SDS011;14881;48.092;11.574;2022-11-11T07:31:10;3.13;;;2.80;;
27428;SDS011;14881;48.092;11.574;2022-11-11T07:33:40;4.93;;;3.35;;
27428;SDS011;14881;48.092;11.574;2022-11-11T07:36:08;8.02;;;5.22;;
27428;SDS011;14881;48.092;11.574;2022-11-11T07:38:38;6.95;;;5.32;;
27428;SDS011;14881;48.092;11.574;2022-11-11T07:41:05;15.82;;;7.88;;
27428;SDS011;14881;48.092;11.574;2022-11-11T07:43:33;13.00;;;8.35;;
27428;SDS011;14881;48.092;11.574;2022-11-11T07:46:03;14.82;;;8.95;;
27428;SDS011;14881;48.092;11.574;2022-11-11T07:48:31;10.73;;;6.88;;
27428;SDS011;14881;48.092;11.574;2022-11-11T07:51:00;11.15;;;7.55;;
27428;SDS011;14881;48.092;11.574;2022-11-11T07:53:28;6.25;;;4.82;;
27428;SDS011;14881;48.092;11.574;2022-11-11T07:55:58;7.35;;;4.90;;
27428;SDS011;14881;48.092;11.574;2022-11-11T07:58:26;7.30;;;4.25;;
27428;SDS011;14881;48.092;11.574;2022-11-11T08:00:57;3.30;;;3.00;;
27428;SDS011;14881;48.092;11.574;2022-11-11T08:03:34;4.22;;;2.38;;
27428;SDS011;14881;48.092;11.574;2022-11-11T08:06:16;3.40;;;2.67;;
27428;SDS011;14881;48.092;11.574;2022-11-11T08:08:45;5.75;;;2.65;;
27428;SDS011;14881;48.092;11.574;2022-11-11T08:11:13;3.75;;;2.72;;
27428;SDS011;14881;48.092;11.574;2022-11-11T08:13:42;3.78;;;2.78;;
27428;SDS011;14881;48.092;11.574;2022-11-11T08:16:10;3.80;;;2.15;;
27428;SDS011;14881;48.092;11.574;2022-11-11T08:18:39;2.90;;;2.28;;
27428;SDS011;14881;48.092;11.574;2022-11-11T08:21:07;4.32;;;3.50;;
27428;SDS011;14881;48.092;11.574;2022-11-11T08:23:36;3.42;;;2.95;;
27428;SDS011;14881;48.092;11.574;2022-11-11T08:26:23;4.43;;;3.03;;
27428;SDS011;14881;48.092;11.574;2022-11-11T08:28:55;2.72;;;2.35;;
27428;SDS011;14881;48.092;11.574;2022-11-11T08:31:23;2.53;;;2.33;;
27428;SDS011;14881;48.092;11.574;2022-11-11T08:33:51;3.60;;;2.92;;
27428;SDS011;14881;48.092;11.574;2022-11-11T08:36:19;6.45;;;2.97;;
27428;SDS011;14881;48.092;11.574;2022-11-11T08:38:50;3.70;;;3.40;;
27428;SDS011;14881;48.092;11.574;2022-11-11T08:41:18;5.50;;;3.15;;
27428;SDS011;14881;48.092;11.574;2022-11-11T08:43:46;4.07;;;3.67;;
27428;SDS011;14881;48.092;11.574;2022-11-11T08:46:18;5.60;;;4.68;;
27428;SDS011;14881;48.092;11.574;2022-11-11T08:48:46;7.82;;;4.22;;
27428;SDS011;14881;48.092;11.574;2022-11-11T08:51:14;6.47;;;5.28;;
27428;SDS011;14881;48.092;11.574;2022-11-11T08:53:42;8.20;;;4.38;;
27428;SDS011;14881;48.092;11.574;2022-11-11T08:56:11;4.93;;;3.40;;
27428;SDS011;14881;48.092;11.574;2022-11-11T08:58:41;7.60;;;3.65;;
27428;SDS011;14881;48.092;11.574;2022-11-11T09:01:09;6.75;;;3.55;;
27428;SDS011;14881;48.092;11.574;2022-11-11T09:03:39;5.72;;;3.42;;
27428;SDS011;14881;48.092;11.574;2022-11-11T09:06:09;4.60;;;3.08;;
27428;SDS011;14881;48.092;11.574;2022-11-11T09:08:39;4.72;;;3.25;;
27428;SDS011;14881;48.092;11.574;2022-11-11T09:11:12;3.67;;;2.88;;
27428;SDS011;14881;48.092;11.574;2022-11-11T09:13:40;2.80;;;2.35;;
27428;SDS011;14881;48.092;11.574;2022-11-11T09:16:08;2.75;;;2.42;;
27428;SDS011;14881;48.092;11.574;2022-11-11T09:18:38;3.28;;;2.53;;
27428;SDS011;14881;48.092;11.574;2022-11-11T09:21:05;3.67;;;2.25;;
27428;SDS011;14881;48.092;11.574;2022-11-11T09:23:33;4.03;;;2.35;;
27428;SDS011;14881;48.092;11.574;2022-11-11T09:26:01;2.33;;;2.13;;
27428;SDS011;14881;48.092;11.574;2022-11-11T09:28:31;2.38;;;2.10;;
27428;SDS011;14881;48.092;11.574;2022-11-11T09:31:00;5.88;;;2.25;;
27428;SDS011;14881;48.092;11.574;2022-11-11T09:33:48;4.75;;;2.60;;
27428;SDS011;14881;48.092;11.574;2022-11-11T09:36:16;3.88;;;2.50;;
27428;SDS011;14881;48.092;11.574;2022-11-11T09:38:44;2.83;;;2.20;;
27428;SDS011;14881;48.092;11.574;2022-11-11T09:41:14;2.70;;;2.00;;
27428;SDS011;14881;48.092;11.574;2022-11-11T09:43:50;2.17;;;1.98;;
27428;SDS011;14881;48.092;11.574;2022-11-11T09:46:27;2.00;;;1.77;;
27428;SDS011;14881;48.092;11.574;2022-11-11T09:49:08;1.60;;;1.50;;
27428;SDS011;14881;48.092;11.574;2022-11-11T09:51:50;1.63;;;1.52;;
27428;SDS011;14881;48.092;11.574;2022-11-11T09:54:32;2.20;;;1.50;;
27428;SDS011;14881;48.092;11.574;2022-11-11T09:57:04;2.70;;;1.50;;
27428;SDS011;14881;48.092;11.574;2022-11-11T09:59:42;1.80;;;1.70;;
27428;SDS011;14881;48.092;11.574;2022-11-11T10:02:17;1.97;;;1.70;;
27428;SDS011;14881;48.092;11.574;2022-11-11T10:04:51;2.55;;;1.45;;
27428;SDS011;14881;48.092;11.574;2022-11-11T10:07:25;1.50;;;1.30;;
27428;SDS011;14881;48.092;11.574;2022-11-11T10:10:01;2.25;;;1.45;;
27428;SDS011;14881;48.092;11.574;2022-11-11T10:12:36;2.17;;;1.50;;
27428;SDS011;14881;48.092;11.574;2022-11-11T10:15:12;1.53;;;1.43;;
27428;SDS011;14881;48.092;11.574;2022-11-11T10:17:44;2.05;;;1.67;;
27428;SDS011;14881;48.092;11.574;2022-11-11T10:20:23;1.80;;;1.58;;
27428;SDS011;14881;48.092;11.574;2022-11-11T10:22:55;3.35;;;1.67;;
27428;SDS011;14881;48.092;11.574;2022-11-11T10:25:29;4.07;;;1.88;;
27428;SDS011;14881;48.092;11.574;2022-11-11T10:27:58;2.75;;;1.95;;
27428;SDS011;14881;48.092;11.574;2022-11-11T10:30:31;2.90;;;1.98;;
27428;SDS011;14881;48.092;11.574;2022-11-11T10:33:00;1.67;;;1.58;;
27428;SDS011;14881;48.092;11.574;2022-11-11T10:35:30;3.67;;;1.25;;
27428;SDS011;14881;48.092;11.574;2022-11-11T10:38:12;2.50;;;1.30;;
27428;SDS011;14881;48.092;11.574;2022-11-11T10:40:51;1.88;;;1.40;;
27428;SDS011;14881;48.092;11.574;2022-11-11T10:43:21;3.92;;;1.30;;
27428;SDS011;14881;48.092;11.574;2022-11-11T10:45:52;2.55;;;1.65;;
27428;SDS011;14881;48.092;11.574;2022-11-11T10:48:28;1.27;;;1.17;;
27428;SDS011;14881;48.092;11.574;2022-11-11T10:51:08;1.90;;;1.52;;
27428;SDS011;14881;48.092;11.574;2022-11-11T10:53:38;1.67;;;1.35;;
27428;SDS011;14881;48.092;11.574;2022-11-11T10:56:16;1.60;;;1.33;;
27428;SDS011;14881;48.092;11.574;2022-11-11T10:58:48;2.00;;;1.30;;
27428;SDS011;14881;48.092;11.574;2022-11-11T11:01:24;1.33;;;1.23;;
27428;SDS011;14881;48.092;11.574;2022-11-11T11:03:58;1.80;;;1.60;;
27428;SDS011;14881;48.092;11.574;2022-11-11T11:06:30;6.22;;;1.63;;
27428;SDS011;14881;48.092;11.574;2022-11-11T11:09:02;4.05;;;1.88;;
27428;SDS011;14881;48.092;11.574;2022-11-11T11:11:38;3.45;;;1.63;;
27428;SDS011;14881;48.092;11.574;2022-11-11T11:14:14;2.10;;;1.50;;
27428;SDS011;14881;48.092;11.574;2022-11-11T11:16:48;2.25;;;1.65;;
27428;SDS011;14881;48.092;11.574;2022-11-11T11:19:21;3.22;;;1.83;;
27428;SDS011;14881;48.092;11.574;2022-11-11T11:21:52;3.33;;;1.75;;
27428;SDS011;14881;48.092;11.574;2022-11-11T11:24:22;3.88;;;2.13;;
27428;SDS011;14881;48.092;11.574;2022-11-11T11:26:53;4.18;;;2.03;;
27428;SDS011;14881;48.092;11.574;2022-11-11T11:29:26;6.18;;;2.58;;
27428;SDS011;14881;48.092;11.574;2022-11-11T11:32:11;4.25;;;2.70;;
27428;SDS011;14881;48.092;11.574;2022-11-11T11:34:45;3.85;;;2.83;;
27428;SDS011;14881;48.092;11.574;2022-11-11T11:37:15;3.95;;;2.88;;
27428;SDS011;14881;48.092;11.574;2022-11-11T11:39:44;5.75;;;3.00;;
27428;SDS011;14881;48.092;11.574;2022-11-11T11:42:28;6.80;;;3.70;;
27428;SDS011;14881;48.092;11.574;2022-11-11T11:44:58;4.05;;;3.40;;
27428;SDS011;14881;48.092;11.574;2022-11-11T11:47:44;8.13;;;3.50;;
27428;SDS011;14881;48.092;11.574;2022-11-11T11:50:40;7.00;;;3.50;;
27428;SDS011;14881;48.092;11.574;2022-11-11T11:53:26;6.18;;;3.83;;
27428;SDS011;14881;48.092;11.574;2022-11-11T11:56:06;10.55;;;3.95;;
27428;SDS011;14881;48.092;11.574;2022-11-11T11:58:51;7.18;;;3.65;;
27428;SDS011;14881;48.092;11.574;2022-11-11T12:01:26;8.40;;;4.05;;
27428;SDS011;14881;48.092;11.574;2022-11-11T12:04:20;7.05;;;4.10;;
27428;SDS011;14881;48.092;11.574;2022-11-11T12:07:10;8.05;;;4.15;;
27428;SDS011;14881;48.092;11.574;2022-11-11T12:09:49;9.32;;;4.53;;
27428;SDS011;14881;48.092;11.574;2022-11-11T12:12:28;7.65;;;4.13;;
27428;SDS011;14881;48.092;11.574;2022-11-11T12:18:06;8.32;;;4.30;;
27428;SDS011;14881;48.092;11.574;2022-11-11T12:20:54;4.47;;;3.67;;
27428;SDS011;14881;48.092;11.574;2022-11-11T12:23:35;7.37;;;3.90;;
27428;SDS011;14881;48.092;11.574;2022-11-11T12:26:12;7.10;;;3.88;;
27428;SDS011;14881;48.092;11.574;2022-11-11T12:28:50;7.45;;;4.20;;
27428;SDS011;14881;48.092;11.574;2022-11-11T12:31:27;7.00;;;3.50;;
27428;SDS011;14881;48.092;11.574;2022-11-11T12:34:09;3.78;;;3.40;;
27428;SDS011;14881;48.092;11.574;2022-11-11T12:36:50;4.45;;;3.20;;
27428;SDS011;14881;48.092;11.574;2022-11-11T12:42:20;9.75;;;3.28;;
27428;SDS011;14881;48.092;11.574;2022-11-11T12:44:59;8.25;;;3.30;;
27428;SDS011;14881;48.092;11.574;2022-11-11T12:47:37;7.03;;;3.50;;
27428;SDS011;14881;48.092;11.574;2022-11-11T12:50:16;7.80;;;3.40;;
27428;SDS011;14881;48.092;11.574;2022-11-11T12:52:53;4.45;;;3.10;;
27428;SDS011;14881;48.092;11.574;2022-11-11T12:55:32;4.70;;;3.70;;
27428;SDS011;14881;48.092;11.574;2022-11-11T13:01:45;7.20;;;2.90;;
27428;SDS011;14881;48.092;11.574;2022-11-11T13:04:26;11.25;;;3.67;;
27428;SDS011;14881;48.092;11.574;2022-11-11T13:07:16;5.18;;;3.10;;
27428;SDS011;14881;48.092;11.574;2022-11-11T13:10:04;5.10;;;3.15;;
27428;SDS011;14881;48.092;11.574;2022-11-11T13:12:44;5.88;;;3.38;;
27428;SDS011;14881;48.092;11.574;2022-11-11T13:15:21;5.32;;;3.45;;
27428;SDS011;14881;48.092;11.574;2022-11-11T13:17:49;7.53;;;3.47;;
27428;SDS011;14881;48.092;11.574;2022-11-11T13:20:20;8.77;;;3.45;;
27428;SDS011;14881;48.092;11.574;2022-11-11T13:22:57;6.72;;;3.80;;
27428;SDS011;14881;48.092;11.574;2022-11-11T13:25:27;8.35;;;3.90;;
27428;SDS011;14881;48.092;11.574;2022-11-11T13:28:00;6.25;;;3.95;;
27428;SDS011;14881;48.092;11.574;2022-11-11T13:30:38;10.13;;;4.07;;
27428;SDS011;14881;48.092;11.574;2022-11-11T13:33:12;6.22;;;4.22;;
27428;SDS011;14881;48.092;11.574;2022-11-11T13:35:51;7.00;;;4.85;;
27428;SDS011;14881;48.092;11.574;2022-11-11T13:38:22;8.38;;;4.35;;
27428;SDS011;14881;48.092;11.574;2022-11-11T13:40:56;6.35;;;4.15;;
27428;SDS011;14881;48.092;11.574;2022-11-11T13:43:28;13.73;;;4.82;;
27428;SDS011;14881;48.092;11.574;2022-11-11T13:45:58;7.93;;;4.75;;
27428;SDS011;14881;48.092;11.574;2022-11-11T13:48:30;14.40;;;5.40;;
27428;SDS011;14881;48.092;11.574;2022-11-11T13:53:53;7.95;;;5.68;;
27428;SDS011;14881;48.092;11.574;2022-11-11T13:56:23;12.52;;;5.40;;
27428;SDS011;14881;48.092;11.574;2022-11-11T13:58:53;9.07;;;5.63;;
27428;SDS011;14881;48.092;11.574;2022-11-11T14:01:22;10.15;;;4.85;;
27428;SDS011;14881;48.092;11.574;2022-11-11T14:03:58;12.45;;;5.95;;
27428;SDS011;14881;48.092;11.574;2022-11-11T14:12:40;9.07;;;5.55;;
27428;SDS011;14881;48.092;11.574;2022-11-11T14:18:00;13.38;;;5.70;;
27428;SDS011;14881;48.092;11.574;2022-11-11T14:20:33;11.70;;;5.80;;
27428;SDS011;14881;48.092;11.574;2022-11-11T14:23:21;16.50;;;6.38;;
27428;SDS011;14881;48.092;11.574;2022-11-11T14:28:52;9.45;;;5.60;;
27428;SDS011;14881;48.092;11.574;2022-11-11T14:31:38;7.95;;;5.20;;
27428;SDS011;14881;48.092;11.574;2022-11-11T14:34:28;6.90;;;5.18;;
27428;SDS011;14881;48.092;11.574;2022-11-11T14:37:08;6.95;;;5.00;;
27428;SDS011;14881;48.092;11.574;2022-11-11T14:39:49;8.18;;;5.47;;
27428;SDS011;14881;48.092;11.574;2022-11-11T14:51:37;8.38;;;5.18;;
27428;SDS011;14881;48.092;11.574;2022-11-11T14:57:18;6.57;;;4.32;;
27428;SDS011;14881;48.092;11.574;2022-11-11T14:59:49;5.80;;;4.05;;
27428;SDS011;14881;48.092;11.574;2022-11-11T15:02:26;6.22;;;4.30;;
27428;SDS011;14881;48.092;11.574;2022-11-11T15:04:58;7.43;;;4.53;;
27428;SDS011;14881;48.092;11.574;2022-11-11T15:07:31;7.80;;;4.30;;
27428;SDS011;14881;48.092;11.574;2022-11-11T15:10:14;10.80;;;4.40;;
27428;SDS011;14881;48.092;11.574;2022-11-11T15:13:05;7.43;;;3.83;;
27428;SDS011;14881;48.092;11.574;2022-11-11T15:15:47;3.83;;;3.30;;
27428;SDS011;14881;48.092;11.574;2022-11-11T15:18:27;5.63;;;4.25;;
27428;SDS011;14881;48.092;11.574;2022-11-11T15:21:12;4.85;;;3.92;;
27428;SDS011;14881;48.092;11.574;2022-11-11T15:23:47;9.45;;;4.20;;
27428;SDS011;14881;48.092;11.574;2022-11-11T15:26:27;7.15;;;3.90;;
27428;SDS011;14881;48.092;11.574;2022-11-11T15:29:11;10.65;;;4.00;;
27428;SDS011;14881;48.092;11.574;2022-11-11T15:31:57;5.90;;;3.70;;
27428;SDS011;14881;48.092;11.574;2022-11-11T15:34:34;4.68;;;3.42;;
27428;SDS011;14881;48.092;11.574;2022-11-11T15:37:10;5.82;;;3.55;;
27428;SDS011;14881;48.092;11.574;2022-11-11T15:39:41;6.65;;;3.50;;
27428;SDS011;14881;48.092;11.574;2022-11-11T15:42:11;7.82;;;3.38;;
27428;SDS011;14881;48.092;11.574;2022-11-11T15:44:46;5.20;;;3.67;;
27428;SDS011;14881;48.092;11.574;2022-11-11T15:47:13;5.32;;;3.33;;
27428;SDS011;14881;48.092;11.574;2022-11-11T15:49:44;5.10;;;3.20;;